Time;durP1;ratioP1;P1;durP2;ratioP2;P2;SDS_P1;SDS_P2;PMS_P1;PMS_P2;Temp;Humidity;BMP_temperature;BMP_pressure;BME280_temperature;BME280_humidity;BME280_pressure;Samples;Min_cycle;Max_cycle;Signal;HPM_P1;HPM_P2
2021/01/15 00:01:09;;;;;;;8.83;7.33;;;1.70;81.80;;;;;;5017968;28;20185;-89
2021/01/15 00:03:39;;;;;;;7.60;6.60;;;1.70;81.70;;;;;;5017015;28;20178;-89
2021/01/15 00:06:05;;;;;;;9.97;7.50;;;1.70;83.00;;;;;;5017171;28;20641;-88
2021/01/15 00:08:37;;;;;;;8.97;7.27;;;1.70;82.10;;;;;;5016904;28;20210;-89
2021/01/15 00:11:03;;;;;;;8.73;7.20;;;1.70;83.30;;;;;;4997929;28;20214;-89
2021/01/15 00:13:29;;;;;;;8.17;6.17;;;1.70;81.70;;;;;;4980515;28;20194;-89
2021/01/15 00:15:55;;;;;;;9.37;6.40;;;1.70;81.00;;;;;;4998407;28;20214;-89
2021/01/15 00:18:20;;;;;;;8.33;5.73;;;1.80;81.50;;;;;;4998930;28;20202;-89
2021/01/15 00:20:46;;;;;;;6.70;5.40;;;1.80;80.70;;;;;;4999113;28;20650;-90
2021/01/15 00:23:12;;;;;;;8.13;6.30;;;1.70;80.50;;;;;;5004916;28;20630;-89
2021/01/15 00:25:38;;;;;;;8.00;5.90;;;1.60;81.40;;;;;;4984873;28;20216;-89
2021/01/15 00:28:03;;;;;;;7.80;5.47;;;1.60;81.90;;;;;;5018884;28;20182;-89
2021/01/15 00:30:29;;;;;;;7.47;5.43;;;1.70;80.60;;;;;;5018550;28;20194;-89
2021/01/15 00:32:55;;;;;;;8.57;5.70;;;1.70;79.20;;;;;;5017531;28;20196;-89
2021/01/15 00:35:23;;;;;;;7.00;5.77;;;1.70;78.70;;;;;;5018082;28;20282;-89
2021/01/15 00:37:49;;;;;;;5.30;4.80;;;1.70;80.00;;;;;;4985843;28;20576;-90
2021/01/15 00:40:15;;;;;;;7.53;4.77;;;1.70;79.30;;;;;;5029162;28;20212;-89
2021/01/15 00:42:41;;;;;;;6.60;4.67;;;1.70;78.60;;;;;;5031084;28;20189;-89
2021/01/15 00:45:07;;;;;;;7.80;4.27;;;1.70;78.10;;;;;;5037444;28;20188;-89
2021/01/15 00:47:33;;;;;;;5.30;4.17;;;1.70;78.10;;;;;;5035667;28;20208;-89
2021/01/15 00:49:59;;;;;;;5.27;4.50;;;1.70;77.30;;;;;;5036888;28;20587;-89
2021/01/15 00:52:24;;;;;;;6.20;4.47;;;1.60;80.20;;;;;;5035767;28;20195;-90
2021/01/15 00:54:50;;;;;;;4.93;4.43;;;1.70;78.90;;;;;;5034228;28;20567;-90
2021/01/15 00:57:16;;;;;;;5.77;4.70;;;1.60;77.00;;;;;;5036052;28;20196;-89
2021/01/15 00:59:41;;;;;;;6.07;4.30;;;1.60;78.70;;;;;;5016801;28;20205;-89
2021/01/15 01:02:07;;;;;;;5.40;4.63;;;1.70;78.50;;;;;;5015740;28;20371;-89
2021/01/15 01:04:33;;;;;;;7.20;5.07;;;1.70;77.00;;;;;;5016636;28;20197;-90
2021/01/15 01:07:00;;;;;;;6.43;4.57;;;1.60;77.90;;;;;;5017151;28;20296;-89
2021/01/15 01:09:25;;;;;;;4.10;3.70;;;1.60;78.90;;;;;;5014918;28;20958;-89
2021/01/15 01:11:51;;;;;;;5.23;3.83;;;1.70;77.80;;;;;;5016024;28;20205;-90
2021/01/15 01:14:17;;;;;;;5.40;4.07;;;1.60;77.40;;;;;;5020671;28;20205;-90
2021/01/15 01:16:42;;;;;;;5.60;3.90;;;1.60;77.90;;;;;;5031514;28;20368;-89
2021/01/15 01:19:08;;;;;;;6.63;3.80;;;1.60;77.70;;;;;;5023389;28;20206;-89
2021/01/15 01:21:34;;;;;;;6.40;3.50;;;1.60;77.90;;;;;;5016624;28;20551;-90
2021/01/15 01:24:00;;;;;;;5.10;3.63;;;1.60;77.40;;;;;;5016713;28;20704;-89
2021/01/15 01:26:25;;;;;;;5.83;4.00;;;1.60;76.20;;;;;;5016576;28;20676;-89
2021/01/15 01:28:51;;;;;;;4.53;3.37;;;1.60;77.00;;;;;;5015869;28;20201;-89
2021/01/15 01:31:18;;;;;;;5.07;3.47;;;1.60;76.20;;;;;;5015535;28;20664;-90
2021/01/15 01:33:44;;;;;;;4.77;3.50;;;1.50;77.80;;;;;;5014977;28;20184;-89
2021/01/15 01:36:12;;;;;;;3.50;3.13;;;1.60;77.00;;;;;;5015414;28;20210;-90
2021/01/15 01:38:39;;;;;;;3.67;3.37;;;1.60;78.00;;;;;;5015772;28;20684;-90
2021/01/15 01:41:04;;;;;;;4.93;3.40;;;1.60;77.40;;;;;;4998393;28;20197;-90
2021/01/15 01:43:30;;;;;;;5.00;3.70;;;1.50;76.10;;;;;;5016244;28;20842;-89
2021/01/15 01:45:59;;;;;;;4.30;3.70;;;1.50;77.20;;;;;;4998486;28;20185;-89
2021/01/15 01:48:25;;;;;;;4.77;3.40;;;1.50;76.40;;;;;;5015385;28;20707;-89
2021/01/15 01:50:53;;;;;;;5.40;3.53;;;1.50;77.60;;;;;;5016090;28;20181;-89
2021/01/15 01:53:22;;;;;;;4.50;3.67;;;1.50;77.20;;;;;;5015731;28;20191;-88
2021/01/15 01:55:49;;;;;;;4.77;3.77;;;1.40;78.40;;;;;;5015750;28;20735;-89
2021/01/15 01:58:16;;;;;;;4.13;3.73;;;1.50;77.40;;;;;;4983185;28;20212;-88
2021/01/15 02:00:44;;;;;;;4.40;3.43;;;1.50;78.80;;;;;;5017900;28;20173;-87
2021/01/15 02:03:16;;;;;;;3.70;3.40;;;1.50;77.30;;;;;;5016829;28;20186;-87
2021/01/15 02:05:41;;;;;;;6.20;3.43;;;1.40;77.50;;;;;;5017322;28;20688;-89
2021/01/15 02:08:07;;;;;;;4.10;3.70;;;1.40;76.50;;;;;;4999973;28;20213;-89
2021/01/15 02:10:44;;;;;;;4.70;4.13;;;1.30;77.20;;;;;;5017489;28;20723;-89
2021/01/15 02:13:40;;;;;;;4.67;3.47;;;1.20;77.00;;;;;;5019552;28;20165;-89
2021/01/15 02:16:17;;;;;;;4.50;3.67;;;1.20;77.90;;;;;;5016190;28;20236;-88
2021/01/15 02:18:54;;;;;;;4.47;3.77;;;1.20;78.00;;;;;;5019863;28;20349;-89
2021/01/15 02:21:52;;;;;;;5.10;3.37;;;1.20;78.20;;;;;;5020758;28;20212;-89
2021/01/15 02:24:34;;;;;;;4.27;3.87;;;1.20;78.00;;;;;;5020679;28;20241;-87
2021/01/15 02:27:37;;;;;;;5.13;3.97;;;1.20;77.90;;;;;;5020440;28;20189;-89
2021/01/15 02:30:09;;;;;;;4.07;3.50;;;1.20;77.90;;;;;;5020344;28;20679;-89
2021/01/15 02:32:40;;;;;;;4.30;3.70;;;1.10;77.80;;;;;;5020258;28;20178;-90
2021/01/15 02:35:23;;;;;;;4.87;3.83;;;1.20;77.50;;;;;;5019783;28;20208;-87
2021/01/15 02:38:14;;;;;;;3.63;3.33;;;1.10;77.10;;;;;;5020013;28;20189;-88
2021/01/15 02:40:56;;;;;;;3.70;3.20;;;1.00;78.50;;;;;;5003238;28;20212;-88
2021/01/15 02:43:23;;;;;;;4.37;3.60;;;1.10;78.10;;;;;;5019977;28;20196;-88
2021/01/15 02:45:50;;;;;;;4.63;3.57;;;1.00;77.10;;;;;;5019876;28;20643;-88
2021/01/15 02:48:19;;;;;;;4.07;3.23;;;1.00;76.20;;;;;;5019050;28;20313;-88
2021/01/15 02:50:47;;;;;;;3.60;3.10;;;1.00;77.60;;;;;;5019820;28;20185;-88
2021/01/15 02:53:14;;;;;;;5.60;3.53;;;0.90;77.40;;;;;;5019876;28;20170;-88
2021/01/15 02:55:40;;;;;;;4.20;3.60;;;1.00;78.00;;;;;;5019940;28;20204;-88
2021/01/15 02:58:06;;;;;;;4.13;3.60;;;0.90;77.70;;;;;;5019623;28;20178;-88
2021/01/15 03:00:32;;;;;;;4.40;3.60;;;1.00;77.80;;;;;;5019582;28;20182;-88
2021/01/15 03:03:09;;;;;;;3.97;3.57;;;1.00;76.70;;;;;;5019384;28;20201;-88
2021/01/15 03:06:08;;;;;;;5.10;3.87;;;1.00;76.70;;;;;;5019532;28;20185;-88
2021/01/15 03:08:35;;;;;;;6.10;3.57;;;1.00;76.40;;;;;;5008415;28;20221;-89
2021/01/15 03:11:01;;;;;;;3.87;3.30;;;0.90;76.80;;;;;;5002314;28;20182;-88
2021/01/15 03:13:28;;;;;;;4.27;3.77;;;0.90;76.70;;;;;;5019716;28;20290;-88
2021/01/15 03:15:58;;;;;;;3.50;3.20;;;1.00;76.40;;;;;;5019211;28;20205;-88
2021/01/15 03:18:24;;;;;;;5.30;3.97;;;1.00;77.90;;;;;;5002720;28;20229;-89
2021/01/15 03:20:50;;;;;;;3.93;3.10;;;1.00;76.30;;;;;;5019620;28;20177;-88
2021/01/15 03:23:16;;;;;;;4.10;3.23;;;1.10;76.90;;;;;;5019162;28;20182;-89
2021/01/15 03:25:42;;;;;;;4.37;3.67;;;1.00;76.70;;;;;;5018914;28;20185;-88
2021/01/15 03:28:07;;;;;;;4.97;3.33;;;1.00;76.90;;;;;;5019030;28;20204;-88
2021/01/15 03:30:33;;;;;;;3.83;3.33;;;1.00;77.50;;;;;;5019827;28;20562;-88
2021/01/15 03:33:01;;;;;;;4.20;3.50;;;1.00;76.90;;;;;;5001675;28;20206;-89
2021/01/15 03:35:29;;;;;;;3.77;3.30;;;1.00;76.10;;;;;;5018715;28;20240;-88
2021/01/15 03:38:05;;;;;;;4.33;3.37;;;0.90;76.30;;;;;;5019714;28;20196;-88
2021/01/15 03:40:45;;;;;;;3.63;3.33;;;0.90;76.20;;;;;;5001492;28;20185;-89
2021/01/15 03:43:19;;;;;;;3.80;3.40;;;0.80;76.80;;;;;;5018852;28;20174;-88
2021/01/15 03:45:45;;;;;;;3.47;3.13;;;0.80;76.00;;;;;;5019531;28;20269;-88
2021/01/15 03:48:13;;;;;;;7.50;3.47;;;0.80;75.70;;;;;;5003362;28;20236;-88
2021/01/15 03:50:39;;;;;;;3.27;2.97;;;0.80;75.70;;;;;;5019551;28;20240;-88
2021/01/15 03:53:05;;;;;;;3.57;3.20;;;0.70;75.20;;;;;;5019172;28;20189;-88
2021/01/15 03:55:31;;;;;;;3.60;3.13;;;0.80;76.20;;;;;;5019210;28;20565;-88
2021/01/15 03:57:58;;;;;;;3.60;3.30;;;0.70;75.70;;;;;;5019032;28;20182;-88
2021/01/15 04:00:23;;;;;;;3.87;3.27;;;0.80;76.00;;;;;;5019259;28;20180;-88
2021/01/15 04:02:49;;;;;;;3.67;3.33;;;0.80;75.00;;;;;;5018881;28;20174;-88
2021/01/15 04:05:15;;;;;;;4.20;3.77;;;0.70;76.50;;;;;;5019014;28;20661;-88
2021/01/15 04:07:41;;;;;;;3.67;3.23;;;0.70;75.90;;;;;;5018479;28;20285;-89
2021/01/15 04:10:12;;;;;;;4.60;3.90;;;0.70;75.30;;;;;;5018675;28;20325;-88
2021/01/15 04:12:39;;;;;;;5.33;3.90;;;0.60;74.80;;;;;;5001143;28;20193;-88
2021/01/15 04:15:06;;;;;;;5.43;3.53;;;0.60;74.40;;;;;;5018664;28;20296;-88
2021/01/15 04:17:32;;;;;;;5.90;3.60;;;0.60;75.10;;;;;;5018902;28;20182;-88
2021/01/15 04:19:58;;;;;;;4.77;3.50;;;0.50;75.20;;;;;;5018210;28;20342;-88
2021/01/15 04:22:24;;;;;;;6.40;3.30;;;0.50;75.20;;;;;;5019075;28;20265;-89
2021/01/15 04:24:49;;;;;;;4.00;3.47;;;0.50;75.10;;;;;;5017741;28;20193;-89
2021/01/15 04:27:15;;;;;;;4.20;3.70;;;0.50;76.00;;;;;;5018619;28;20185;-88
2021/01/15 04:29:41;;;;;;;4.93;3.80;;;0.50;76.70;;;;;;5018496;28;20201;-88
2021/01/15 04:32:06;;;;;;;3.53;3.10;;;0.40;75.00;;;;;;5018043;28;20177;-88
2021/01/15 04:34:32;;;;;;;4.00;3.60;;;0.40;75.00;;;;;;5017948;28;20311;-88
2021/01/15 04:36:58;;;;;;;5.53;4.23;;;0.40;76.90;;;;;;5017372;28;20301;-88
2021/01/15 04:39:24;;;;;;;4.00;3.60;;;0.40;75.40;;;;;;5017989;28;20283;-88
2021/01/15 04:41:52;;;;;;;5.67;3.50;;;0.30;75.90;;;;;;5018089;28;20185;-88
2021/01/15 04:44:18;;;;;;;4.17;3.77;;;0.40;75.70;;;;;;5000874;28;20210;-88
2021/01/15 04:46:45;;;;;;;4.50;4.10;;;0.30;75.30;;;;;;5018194;28;20181;-88
2021/01/15 04:49:12;;;;;;;3.57;3.13;;;0.30;77.20;;;;;;5017851;28;20201;-88
2021/01/15 04:51:39;;;;;;;6.20;3.63;;;0.30;75.90;;;;;;5017622;28;20193;-88
2021/01/15 04:54:06;;;;;;;5.87;3.87;;;0.30;75.60;;;;;;5017222;28;20636;-88
2021/01/15 04:56:51;;;;;;;4.63;3.53;;;0.30;77.50;;;;;;5000279;28;20680;-88
2021/01/15 04:59:18;;;;;;;6.07;3.60;;;0.30;76.60;;;;;;5017646;28;20685;-88
2021/01/15 05:01:46;;;;;;;3.80;3.40;;;0.20;76.10;;;;;;4999952;28;20178;-88
2021/01/15 05:04:13;;;;;;;4.53;3.70;;;0.20;79.00;;;;;;5017275;28;20185;-88
2021/01/15 05:06:52;;;;;;;7.00;4.60;;;0.20;78.60;;;;;;5000379;28;20569;-89
2021/01/15 05:09:21;;;;;;;3.97;3.57;;;0.20;76.90;;;;;;4999692;28;20210;-88
2021/01/15 05:11:47;;;;;;;4.60;3.40;;;0.20;76.50;;;;;;5000087;28;20272;-88
2021/01/15 05:14:16;;;;;;;5.77;5.23;;;0.20;75.90;;;;;;5018071;28;20189;-88
2021/01/15 05:16:43;;;;;;;5.33;4.83;;;0.10;77.30;;;;;;5000736;28;20209;-88
2021/01/15 05:19:10;;;;;;;5.30;4.80;;;0.10;77.80;;;;;;5018250;28;20202;-89
2021/01/15 05:21:37;;;;;;;8.27;7.47;;;0.10;76.50;;;;;;5019406;28;20234;-87
2021/01/15 05:24:07;;;;;;;3.80;3.47;;;0.10;75.50;;;;;;5018662;28;20281;-88
2021/01/15 05:26:34;;;;;;;4.97;4.47;;;0.00;75.90;;;;;;5000927;28;20642;-88
2021/01/15 05:29:01;;;;;;;5.33;4.87;;;0.00;76.20;;;;;;5019659;28;20576;-89
2021/01/15 05:31:27;;;;;;;5.07;4.00;;;-0.10;77.30;;;;;;5018714;28;20256;-89
2021/01/15 05:34:05;;;;;;;5.93;3.97;;;-0.10;77.00;;;;;;5018281;28;20758;-88
2021/01/15 05:36:32;;;;;;;5.10;4.03;;;-0.20;76.60;;;;;;5001244;28;20209;-89
2021/01/15 05:39:06;;;;;;;5.67;4.13;;;-0.10;77.30;;;;;;5019677;28;20221;-88
2021/01/15 05:41:33;;;;;;;4.47;3.87;;;-0.10;77.10;;;;;;5019727;28;20173;-88
2021/01/15 05:44:00;;;;;;;4.27;3.87;;;-0.20;76.60;;;;;;5020890;28;20193;-88
2021/01/15 05:46:25;;;;;;;4.23;3.83;;;-0.20;77.50;;;;;;5021559;28;20189;-87
2021/01/15 05:48:53;;;;;;;5.50;4.23;;;-0.20;76.80;;;;;;5020723;28;20201;-88
2021/01/15 05:51:32;;;;;;;5.57;3.90;;;-0.30;77.20;;;;;;5020964;28;20296;-87
2021/01/15 05:54:00;;;;;;;5.67;4.40;;;-0.40;77.30;;;;;;5021287;28;20186;-88
2021/01/15 05:56:36;;;;;;;6.00;4.33;;;-0.30;77.50;;;;;;5020755;28;20236;-88
2021/01/15 05:59:09;;;;;;;7.43;4.20;;;-0.40;77.30;;;;;;5021439;28;20293;-88
2021/01/15 06:01:59;;;;;;;4.97;4.47;;;-0.40;77.40;;;;;;5020971;28;20162;-88
2021/01/15 06:04:25;;;;;;;6.40;4.27;;;-0.50;77.50;;;;;;5022257;28;20170;-89
2021/01/15 06:06:51;;;;;;;4.80;4.40;;;-0.40;77.70;;;;;;5022064;28;20232;-89
2021/01/15 06:09:21;;;;;;;4.80;4.30;;;-0.50;77.70;;;;;;5021868;28;20201;-89
2021/01/15 06:11:48;;;;;;;5.40;4.90;;;-0.40;77.60;;;;;;5021039;28;20193;-89
2021/01/15 06:14:26;;;;;;;6.23;4.77;;;-0.50;76.70;;;;;;5022267;28;20189;-89
2021/01/15 06:17:05;;;;;;;4.50;4.07;;;-0.50;77.60;;;;;;5020253;28;20288;-89
2021/01/15 06:19:49;;;;;;;7.00;6.30;;;-0.60;77.80;;;;;;5020485;28;20206;-90
2021/01/15 06:22:27;;;;;;;8.37;6.00;;;-0.60;77.50;;;;;;5022642;28;20162;-89
2021/01/15 06:25:04;;;;;;;6.53;5.53;;;-0.60;78.20;;;;;;5022145;28;20177;-90
2021/01/15 06:27:43;;;;;;;5.10;4.53;;;-0.60;77.50;;;;;;5003359;28;20200;-90
2021/01/15 06:30:19;;;;;;;5.20;4.70;;;-0.50;80.10;;;;;;5030823;28;20204;-90
2021/01/15 06:32:46;;;;;;;5.47;4.87;;;-0.50;78.00;;;;;;5003329;28;20181;-90
2021/01/15 06:35:31;;;;;;;5.43;4.80;;;-0.50;76.90;;;;;;5019869;28;20599;-90
2021/01/15 06:38:02;;;;;;;5.67;4.70;;;-0.50;78.60;;;;;;5020221;28;20232;-90
2021/01/15 06:40:37;;;;;;;6.10;5.50;;;-0.50;77.90;;;;;;5021015;28;20162;-90
2021/01/15 06:43:08;;;;;;;7.40;5.37;;;-0.50;77.00;;;;;;4983301;28;20256;-90
2021/01/15 06:45:42;;;;;;;5.73;5.00;;;-0.50;78.20;;;;;;5001046;28;20182;-90
2021/01/15 06:48:11;;;;;;;7.23;4.63;;;-0.50;79.60;;;;;;5002056;28;20256;-90
2021/01/15 06:50:38;;;;;;;5.43;4.67;;;-0.50;79.10;;;;;;4983924;28;20271;-90
2021/01/15 06:53:27;;;;;;;5.83;5.07;;;-0.40;78.50;;;;;;5012986;28;20196;-90
2021/01/15 06:55:58;;;;;;;5.40;4.80;;;-0.50;79.30;;;;;;5021937;28;20217;-90
2021/01/15 06:58:37;;;;;;;6.33;5.33;;;-0.50;78.20;;;;;;5021075;28;20220;-90
2021/01/15 07:01:21;;;;;;;7.07;5.00;;;-0.60;78.10;;;;;;5024398;28;20158;-90
2021/01/15 07:04:14;;;;;;;8.50;5.70;;;-0.60;78.40;;;;;;5024248;28;20181;-90
2021/01/15 07:06:56;;;;;;;10.13;7.90;;;-0.70;79.00;;;;;;5007487;28;20184;-90
2021/01/15 07:09:27;;;;;;;13.13;8.97;;;-0.70;79.90;;;;;;5024696;28;20203;-90
2021/01/15 07:11:55;;;;;;;8.50;6.63;;;-0.60;79.60;;;;;;5014999;28;20189;-91
2021/01/15 07:14:26;;;;;;;8.20;5.57;;;-0.60;79.70;;;;;;5026301;28;20293;-90
2021/01/15 07:16:55;;;;;;;8.13;5.60;;;-0.70;79.20;;;;;;5010635;28;20213;-90
2021/01/15 07:19:35;;;;;;;7.83;5.73;;;-0.70;81.00;;;;;;5005733;28;20213;-91
2021/01/15 07:22:00;;;;;;;7.73;5.87;;;-0.70;80.70;;;;;;5005727;28;20181;-90
2021/01/15 07:24:32;;;;;;;8.70;7.23;;;-0.70;80.10;;;;;;5007046;28;20192;-91
2021/01/15 07:26:59;;;;;;;9.87;7.17;;;-0.60;80.70;;;;;;5024245;28;20178;-90
2021/01/15 07:29:26;;;;;;;8.27;7.30;;;-0.70;80.30;;;;;;5024299;28;20212;-90
2021/01/15 07:32:05;;;;;;;8.60;6.87;;;-0.70;80.50;;;;;;5022344;28;20680;-90
2021/01/15 07:34:31;;;;;;;8.17;7.10;;;-0.70;80.80;;;;;;5023891;28;20170;-90
2021/01/15 07:36:57;;;;;;;10.03;7.60;;;-0.70;81.70;;;;;;4990063;28;20213;-91
2021/01/15 07:39:23;;;;;;;8.77;7.37;;;-0.70;81.30;;;;;;5003082;28;20217;-90
2021/01/15 07:41:53;;;;;;;8.27;7.00;;;-0.70;81.80;;;;;;5024072;28;20553;-90
2021/01/15 07:44:24;;;;;;;7.77;6.67;;;-0.60;81.10;;;;;;5022107;28;20166;-90
2021/01/15 07:46:59;;;;;;;7.70;6.90;;;-0.60;82.60;;;;;;5022575;28;20209;-91
2021/01/15 07:49:41;;;;;;;9.37;7.17;;;-0.60;81.10;;;;;;5005391;28;20209;-91
2021/01/15 07:52:11;;;;;;;7.70;6.80;;;-0.60;81.70;;;;;;5007219;28;20188;-90
2021/01/15 07:55:06;;;;;;;11.33;7.70;;;-0.60;81.10;;;;;;5001468;28;20197;-91
2021/01/15 07:57:32;;;;;;;9.40;7.83;;;-0.70;81.60;;;;;;5008905;28;20204;-91
2021/01/15 08:00:22;;;;;;;8.93;7.53;;;-0.70;82.20;;;;;;5020859;28;20233;-91
2021/01/15 08:02:48;;;;;;;11.33;8.20;;;-0.70;82.40;;;;;;5022201;28;20548;-90
2021/01/15 08:05:23;;;;;;;11.10;8.00;;;-0.60;83.50;;;;;;5020878;28;20671;-91
2021/01/15 08:07:48;;;;;;;9.73;7.77;;;-0.40;81.70;;;;;;5022350;28;20276;-91
2021/01/15 08:10:24;;;;;;;8.10;7.30;;;-0.40;81.80;;;;;;5022094;28;20240;-91
2021/01/15 08:12:50;;;;;;;9.43;7.80;;;-0.50;83.20;;;;;;5025182;28;20244;-91
2021/01/15 08:15:32;;;;;;;9.83;7.97;;;-0.30;82.60;;;;;;5038519;28;20243;-91
2021/01/15 08:18:02;;;;;;;9.87;8.53;;;-0.30;83.00;;;;;;5024122;28;20197;-91
2021/01/15 08:20:28;;;;;;;9.37;7.73;;;-0.20;82.20;;;;;;5022562;28;20181;-91
2021/01/15 08:22:54;;;;;;;9.47;7.67;;;-0.10;82.20;;;;;;5021513;28;20530;-92
2021/01/15 08:25:24;;;;;;;18.43;16.43;;;-0.10;81.00;;;;;;5021916;28;20220;-91
2021/01/15 08:27:50;;;;;;;15.67;12.50;;;-0.10;82.00;;;;;;5022295;28;20189;-91
2021/01/15 08:30:16;;;;;;;9.43;8.10;;;0.00;81.20;;;;;;5022950;28;20218;-91
2021/01/15 08:32:42;;;;;;;10.77;9.00;;;0.00;80.40;;;;;;5020782;28;20606;-90
2021/01/15 08:35:21;;;;;;;11.00;9.10;;;0.00;81.40;;;;;;5020735;28;20576;-90
2021/01/15 08:37:46;;;;;;;11.30;9.23;;;0.00;80.30;;;;;;5021494;28;20194;-91
2021/01/15 08:40:24;;;;;;;9.80;8.80;;;0.00;80.70;;;;;;5004961;28;20206;-91
2021/01/15 08:42:49;;;;;;;10.00;9.00;;;-0.10;81.10;;;;;;5019629;28;20193;-91
2021/01/15 08:45:16;;;;;;;12.13;9.27;;;0.00;80.50;;;;;;5002069;28;20247;-90
2021/01/15 08:47:42;;;;;;;13.13;9.40;;;0.00;80.30;;;;;;4991201;28;20184;-91
2021/01/15 08:50:08;;;;;;;9.87;8.87;;;0.00;80.30;;;;;;5016539;28;20213;-91
2021/01/15 08:52:34;;;;;;;10.33;9.13;;;0.00;81.30;;;;;;4985321;28;20248;-91
2021/01/15 08:55:02;;;;;;;12.27;9.03;;;0.00;80.50;;;;;;5024714;28;20630;-91
2021/01/15 08:57:29;;;;;;;12.00;9.43;;;0.00;79.50;;;;;;5012057;28;20247;-91
2021/01/15 08:59:56;;;;;;;9.80;8.80;;;0.00;80.40;;;;;;5038493;28;20251;-90
2021/01/15 09:02:22;;;;;;;10.03;8.90;;;0.10;80.40;;;;;;5038080;28;20177;-91
2021/01/15 09:04:49;;;;;;;11.63;9.30;;;0.00;80.50;;;;;;5036220;28;20228;-90
2021/01/15 09:07:17;;;;;;;11.00;9.70;;;0.00;79.80;;;;;;5024625;28;20181;-91
2021/01/15 09:09:44;;;;;;;10.77;8.77;;;0.00;79.80;;;;;;5018699;28;20210;-91
2021/01/15 09:12:10;;;;;;;13.03;9.97;;;0.00;80.00;;;;;;4983870;28;20186;-91
2021/01/15 09:14:36;;;;;;;10.10;9.00;;;0.10;80.40;;;;;;5016093;28;20174;-92
2021/01/15 09:17:04;;;;;;;10.47;9.03;;;0.10;80.00;;;;;;5017604;28;20205;-91
2021/01/15 09:19:29;;;;;;;9.97;8.90;;;0.10;80.80;;;;;;5000745;28;20228;-91
2021/01/15 09:22:01;;;;;;;9.90;8.63;;;0.10;79.60;;;;;;5000595;28;20190;-91
2021/01/15 09:24:29;;;;;;;13.30;10.80;;;0.10;79.30;;;;;;5001149;28;20169;-91
2021/01/15 09:26:59;;;;;;;11.23;8.97;;;0.20;79.30;;;;;;5004720;28;20184;-91
2021/01/15 09:29:26;;;;;;;11.57;9.43;;;0.20;78.80;;;;;;5019813;28;20224;-91
2021/01/15 09:31:52;;;;;;;10.10;8.77;;;0.20;78.50;;;;;;5017284;28;20188;-91
2021/01/15 09:34:19;;;;;;;13.40;9.73;;;0.20;78.30;;;;;;4999789;28;20205;-91
2021/01/15 09:36:47;;;;;;;12.83;9.13;;;0.20;79.60;;;;;;5018045;28;20209;-91
2021/01/15 09:39:14;;;;;;;11.70;9.40;;;0.20;79.00;;;;;;5013024;28;20221;-91
2021/01/15 09:41:44;;;;;;;10.63;9.20;;;0.40;78.60;;;;;;5018793;28;20174;-91
2021/01/15 09:44:09;;;;;;;11.53;8.60;;;0.50;78.00;;;;;;5017562;28;20178;-91
2021/01/15 09:46:35;;;;;;;12.17;9.90;;;0.60;78.00;;;;;;4998821;28;20291;-91
2021/01/15 09:49:01;;;;;;;12.20;9.50;;;0.60;77.70;;;;;;5016079;28;20312;-90
2021/01/15 09:51:28;;;;;;;13.90;10.40;;;0.60;78.20;;;;;;5013757;28;20197;-91
2021/01/15 09:53:54;;;;;;;12.77;9.60;;;0.80;77.70;;;;;;5016961;28;20181;-91
2021/01/15 09:56:31;;;;;;;11.97;8.77;;;0.90;76.20;;;;;;5015311;28;20213;-91
2021/01/15 09:58:59;;;;;;;11.13;9.23;;;0.90;76.00;;;;;;5016072;28;20197;-91
2021/01/15 10:01:26;;;;;;;9.90;8.43;;;0.90;76.20;;;;;;5016556;28;20548;-91
2021/01/15 10:03:59;;;;;;;12.80;9.13;;;0.90;75.40;;;;;;5016375;28;20177;-91
2021/01/15 10:06:28;;;;;;;11.53;9.07;;;0.90;75.00;;;;;;4996684;28;20176;-91
2021/01/15 10:08:56;;;;;;;10.80;9.20;;;1.10;74.60;;;;;;5008299;28;20197;-91
2021/01/15 10:11:29;;;;;;;11.70;8.77;;;1.00;74.80;;;;;;5016510;28;20182;-91
2021/01/15 10:14:15;;;;;;;10.77;8.93;;;1.10;74.40;;;;;;5015734;28;20186;-91
2021/01/15 10:16:51;;;;;;;9.20;8.20;;;1.30;73.50;;;;;;4996592;28;20216;-91
2021/01/15 10:19:21;;;;;;;12.13;8.23;;;1.30;73.10;;;;;;5005415;28;20209;-91
2021/01/15 10:21:47;;;;;;;12.13;8.70;;;1.30;72.50;;;;;;5017285;28;20242;-91
2021/01/15 10:24:14;;;;;;;9.57;8.23;;;1.40;72.10;;;;;;5014379;28;20181;-91
2021/01/15 10:26:41;;;;;;;10.10;8.10;;;1.50;72.20;;;;;;5016265;28;20197;-91
2021/01/15 10:29:09;;;;;;;9.50;8.50;;;1.60;71.90;;;;;;5015075;28;20205;-91
2021/01/15 10:31:34;;;;;;;10.37;8.73;;;1.80;71.50;;;;;;5015971;28;20182;-91
2021/01/15 10:34:04;;;;;;;10.97;8.43;;;1.90;70.00;;;;;;5017796;28;20188;-91
2021/01/15 10:36:30;;;;;;;11.17;8.57;;;2.00;69.90;;;;;;5020597;28;20256;-91
2021/01/15 10:38:56;;;;;;;9.10;7.87;;;2.20;72.00;;;;;;5017965;28;20305;-90
2021/01/15 10:41:29;;;;;;;10.23;8.67;;;2.40;69.30;;;;;;5025213;28;20209;-91
2021/01/15 10:43:55;;;;;;;11.17;9.00;;;2.50;68.40;;;;;;5036185;28;20208;-90
2021/01/15 10:46:50;;;;;;;10.20;9.13;;;2.60;69.20;;;;;;5020938;28;20228;-88
2021/01/15 10:49:18;;;;;;;9.77;8.57;;;2.80;67.80;;;;;;5014943;28;20245;-92
2021/01/15 10:51:52;;;;;;;9.40;8.30;;;3.00;67.30;;;;;;5019316;28;20196;-87
2021/01/15 10:54:17;;;;;;;9.50;8.40;;;3.20;66.50;;;;;;5018826;28;20825;-89
2021/01/15 10:56:46;;;;;;;10.23;9.00;;;3.10;66.00;;;;;;5017816;28;20259;-89
2021/01/15 10:59:12;;;;;;;11.03;9.13;;;3.30;67.10;;;;;;5017457;28;20492;-87
2021/01/15 11:01:42;;;;;;;10.07;9.03;;;3.60;65.00;;;;;;5015723;28;20182;-88
2021/01/15 11:04:09;;;;;;;9.90;8.63;;;3.70;65.70;;;;;;5015094;28;20193;-88
2021/01/15 11:06:36;;;;;;;10.80;8.93;;;3.80;64.20;;;;;;5016956;28;20185;-88
2021/01/15 11:09:02;;;;;;;10.03;8.10;;;3.80;63.50;;;;;;5016084;28;20602;-88
2021/01/15 11:11:28;;;;;;;9.43;8.53;;;3.80;63.40;;;;;;5017138;28;20526;-88
2021/01/15 11:13:54;;;;;;;9.60;8.53;;;3.80;64.30;;;;;;5014946;28;20196;-88
2021/01/15 11:16:19;;;;;;;11.27;8.93;;;3.80;63.90;;;;;;5016913;28;20198;-88
2021/01/15 11:18:45;;;;;;;10.77;8.90;;;4.10;63.90;;;;;;5016927;28;20233;-88
2021/01/15 11:21:11;;;;;;;9.87;8.40;;;4.20;63.30;;;;;;5015224;28;20181;-88
2021/01/15 11:23:37;;;;;;;9.97;7.80;;;4.30;63.30;;;;;;5017288;28;20204;-89
2021/01/15 11:26:03;;;;;;;9.23;8.23;;;4.50;61.30;;;;;;5022980;28;20193;-90
2021/01/15 11:28:29;;;;;;;9.60;8.33;;;4.50;61.90;;;;;;5026232;28;20217;-90
2021/01/15 11:30:55;;;;;;;9.13;8.13;;;4.50;61.00;;;;;;5018063;28;20683;-89
2021/01/15 11:33:21;;;;;;;8.90;7.43;;;4.60;60.20;;;;;;5015081;28;20660;-89
2021/01/15 11:35:47;;;;;;;8.77;7.87;;;4.40;59.20;;;;;;5016406;28;20205;-88
2021/01/15 11:38:13;;;;;;;9.37;7.90;;;4.30;60.30;;;;;;5018324;28;20679;-90
2021/01/15 11:40:38;;;;;;;9.43;7.83;;;4.40;60.10;;;;;;5015747;28;20200;-90
2021/01/15 11:43:04;;;;;;;9.23;8.33;;;4.50;60.40;;;;;;5022995;28;20217;-90
2021/01/15 11:45:29;;;;;;;8.97;8.07;;;4.70;59.00;;;;;;5026255;28;20205;-89
2021/01/15 11:47:56;;;;;;;8.60;7.17;;;4.60;59.00;;;;;;5019485;28;20200;-90
2021/01/15 11:50:24;;;;;;;9.50;8.13;;;4.60;59.10;;;;;;5009983;28;20186;-90
2021/01/15 11:52:55;;;;;;;8.90;8.10;;;4.90;58.40;;;;;;5017241;28;20680;-89
2021/01/15 11:55:22;;;;;;;8.40;7.60;;;5.00;59.00;;;;;;4997414;28;20206;-90
2021/01/15 11:57:52;;;;;;;9.43;7.90;;;5.10;57.30;;;;;;5002246;28;20178;-90
2021/01/15 12:00:19;;;;;;;9.93;8.00;;;5.10;56.80;;;;;;5016851;28;20689;-90
2021/01/15 12:02:45;;;;;;;8.13;7.30;;;5.10;57.50;;;;;;5017003;28;20213;-91
2021/01/15 12:05:11;;;;;;;8.13;7.33;;;5.00;57.00;;;;;;5003564;28;20193;-90
2021/01/15 12:07:37;;;;;;;9.23;7.50;;;5.20;57.40;;;;;;5017687;28;20197;-90
2021/01/15 12:10:05;;;;;;;12.63;8.70;;;5.30;57.30;;;;;;5018644;28;20292;-91
2021/01/15 12:12:36;;;;;;;8.23;7.37;;;5.50;57.90;;;;;;4999790;28;20197;-90
2021/01/15 12:15:01;;;;;;;8.87;8.07;;;5.80;55.70;;;;;;5015274;28;20213;-90
2021/01/15 12:17:30;;;;;;;9.03;7.33;;;6.10;54.90;;;;;;5014221;28;20189;-91
2021/01/15 12:19:55;;;;;;;8.37;7.57;;;6.10;53.60;;;;;;5017432;28;20225;-90
2021/01/15 12:22:21;;;;;;;8.37;7.03;;;6.10;53.80;;;;;;5019103;28;20262;-90
2021/01/15 12:24:46;;;;;;;7.43;6.80;;;6.30;53.20;;;;;;5019754;28;20771;-91
2021/01/15 12:27:12;;;;;;;7.43;6.27;;;6.30;52.80;;;;;;5021138;28;20190;-89
2021/01/15 12:29:38;;;;;;;7.57;6.33;;;6.30;53.60;;;;;;5017577;28;20210;-90
2021/01/15 12:32:04;;;;;;;8.23;7.47;;;6.20;53.70;;;;;;5017850;28;20193;-89
2021/01/15 12:34:29;;;;;;;7.97;6.57;;;5.90;55.00;;;;;;4999442;28;20529;-90
2021/01/15 12:36:55;;;;;;;8.03;7.10;;;6.00;54.30;;;;;;4998675;28;20244;-90
2021/01/15 12:39:20;;;;;;;9.43;6.63;;;6.10;54.10;;;;;;5012930;28;20241;-89
2021/01/15 12:41:48;;;;;;;7.40;6.70;;;6.30;53.80;;;;;;5016850;28;20178;-90
2021/01/15 12:44:14;;;;;;;7.20;6.50;;;6.40;53.60;;;;;;5017468;28;20198;-89
2021/01/15 12:46:40;;;;;;;6.97;6.23;;;6.60;53.50;;;;;;5021682;28;20193;-91
2021/01/15 12:49:06;;;;;;;7.07;6.37;;;6.80;52.70;;;;;;5024003;28;20280;-91
2021/01/15 12:51:32;;;;;;;8.73;7.37;;;6.60;51.60;;;;;;5023391;28;20241;-91
2021/01/15 12:53:58;;;;;;;7.83;7.10;;;6.70;52.00;;;;;;5020714;28;20220;-91
2021/01/15 12:56:24;;;;;;;6.53;5.87;;;6.60;51.60;;;;;;4988381;28;20228;-92
2021/01/15 12:58:49;;;;;;;10.27;8.37;;;6.50;52.60;;;;;;5005892;28;20212;-92
2021/01/15 13:01:15;;;;;;;9.40;8.37;;;6.50;52.80;;;;;;5022332;28;20246;-92
2021/01/15 13:03:40;;;;;;;7.27;6.57;;;6.40;53.10;;;;;;5005975;28;20213;-92